createdAt,value
2022-08-03T00:00:20.278Z,23.71
2022-08-03T00:02:46.815Z,23.68
2022-08-03T00:05:13.384Z,23.67
2022-08-03T00:07:41.133Z,23.62
2022-08-03T00:10:07.923Z,23.60
2022-08-03T00:12:36.328Z,23.63
2022-08-03T00:15:03.048Z,23.64
2022-08-03T00:17:29.488Z,23.59
2022-08-03T00:20:15.895Z,23.51
2022-08-03T00:22:42.335Z,23.47
2022-08-03T00:25:08.892Z,23.35
2022-08-03T00:27:35.451Z,23.20
2022-08-03T00:30:02.297Z,23.22
2022-08-03T00:32:28.825Z,23.13
2022-08-03T00:34:57.764Z,23.07
2022-08-03T00:37:40.755Z,22.96
2022-08-03T00:40:12.277Z,22.82
2022-08-03T00:42:48.723Z,22.77
2022-08-03T00:45:15.191Z,22.74
2022-08-03T00:47:41.734Z,22.81
2022-08-03T00:50:08.565Z,22.69
2022-08-03T00:52:35.571Z,22.81
2022-08-03T00:55:04.097Z,22.75
2022-08-03T00:57:32.709Z,22.67
2022-08-03T01:00:02.373Z,22.72
2022-08-03T01:02:29.332Z,22.73
2022-08-03T01:04:56.366Z,22.67
2022-08-03T01:07:35.724Z,22.55
2022-08-03T01:10:12.039Z,22.53
2022-08-03T01:12:42.729Z,22.43
2022-08-03T01:15:19.174Z,22.54
2022-08-03T01:17:56.045Z,22.64
2022-08-03T01:20:27.124Z,22.56
2022-08-03T01:23:09.147Z,22.54
2022-08-03T01:26:09.442Z,22.56
2022-08-03T01:28:58.767Z,22.50
2022-08-03T01:33:01.196Z,22.48
2022-08-03T01:34:51.939Z,22.42
2022-08-03T01:37:22.957Z,22.34
2022-08-03T01:39:49.761Z,22.36
2022-08-03T01:42:17.341Z,22.36
2022-08-03T01:44:45.439Z,22.32
2022-08-03T01:47:12.913Z,22.28
2022-08-03T01:49:40.826Z,22.27
2022-08-03T01:52:07.767Z,22.17
2022-08-03T01:54:36.794Z,22.16
2022-08-03T01:57:04.237Z,22.04
2022-08-03T01:59:32.912Z,22.14
2022-08-03T02:02:31.722Z,22.12
2022-08-03T02:04:52.875Z,22.12
2022-08-03T02:07:19.758Z,22.08
2022-08-03T02:09:50.226Z,22.06
2022-08-03T02:12:19.077Z,21.91
2022-08-03T02:14:46.853Z,21.89
2022-08-03T02:17:14.109Z,21.87
2022-08-03T02:19:41.820Z,21.91
2022-08-03T02:22:10.815Z,21.87
2022-08-03T02:24:37.513Z,21.78
2022-08-03T02:27:08.301Z,21.89
2022-08-03T02:29:39.068Z,21.78
2022-08-03T02:32:10.692Z,21.88
2022-08-03T02:34:37.911Z,21.82
2022-08-03T02:37:04.671Z,21.81
2022-08-03T02:39:32.312Z,21.76
2022-08-03T02:42:02.469Z,21.77
2022-08-03T02:44:34.832Z,21.72
2022-08-03T02:47:04.167Z,21.67
2022-08-03T02:49:41.037Z,21.68
2022-08-03T02:52:18.797Z,21.60
2022-08-03T02:54:46.364Z,21.59
2022-08-03T02:57:14.252Z,21.59
2022-08-03T02:59:41.865Z,21.51
2022-08-03T03:02:09.590Z,21.48
2022-08-03T03:04:36.341Z,21.44
2022-08-03T03:07:04.335Z,21.50
2022-08-03T03:09:40.495Z,21.40
2022-08-03T03:12:10.774Z,21.46
2022-08-03T03:14:38.279Z,21.46
2022-08-03T03:17:06.827Z,21.47
2022-08-03T03:19:43.123Z,21.44
2022-08-03T03:22:10.182Z,21.45
2022-08-03T03:24:38.104Z,21.39
2022-08-03T03:27:05.001Z,21.40
2022-08-03T03:29:39.150Z,21.38
2022-08-03T03:32:09.164Z,21.37
2022-08-03T03:34:36.568Z,21.35
2022-08-03T03:37:03.310Z,21.38
2022-08-03T03:39:29.848Z,21.36
2022-08-03T03:41:57.363Z,21.38
2022-08-03T03:44:28.113Z,21.39
2022-08-03T03:46:55.643Z,21.45
2022-08-03T03:49:22.639Z,21.43
2022-08-03T03:51:49.386Z,21.38
2022-08-03T03:54:16.053Z,21.31
2022-08-03T03:56:42.573Z,21.28
2022-08-03T03:59:09.002Z,21.37
2022-08-03T04:01:35.543Z,21.40
2022-08-03T04:04:21.962Z,21.35
2022-08-03T04:07:07.020Z,21.49
2022-08-03T04:09:54.409Z,21.47
2022-08-03T04:12:22.898Z,21.60
2022-08-03T04:14:51.162Z,21.63
2022-08-03T04:17:18.458Z,21.70
2022-08-03T04:19:51.791Z,21.84
2022-08-03T04:22:20.528Z,21.88
2022-08-03T04:24:50.011Z,21.92
2022-08-03T04:27:19.064Z,22.01
2022-08-03T04:29:48.654Z,22.08
2022-08-03T04:32:16.202Z,22.17
2022-08-03T04:34:42.809Z,22.27
2022-08-03T04:37:12.651Z,22.30
2022-08-03T04:39:39.817Z,22.40
2022-08-03T04:42:09.140Z,22.44
2022-08-03T04:44:38.431Z,22.50
2022-08-03T04:47:04.886Z,22.66
2022-08-03T04:49:32.098Z,22.76
2022-08-03T04:51:58.644Z,22.91
2022-08-03T04:54:25.056Z,23.00
2022-08-03T04:56:51.475Z,23.01
2022-08-03T04:59:18.026Z,23.11
2022-08-03T05:01:44.524Z,23.07
2022-08-03T05:04:11.197Z,23.08
2022-08-03T05:06:41.426Z,23.15
2022-08-03T05:09:14.699Z,23.08
2022-08-03T05:11:41.159Z,23.10
2022-08-03T05:14:07.590Z,23.24
2022-08-03T05:16:34.090Z,23.26
2022-08-03T05:19:00.746Z,23.38
2022-08-03T05:21:27.208Z,23.52
2022-08-03T05:24:13.615Z,23.62
2022-08-03T05:26:42.406Z,23.71
2022-08-03T05:29:08.845Z,23.73
2022-08-03T05:31:35.693Z,23.82
2022-08-03T05:34:02.299Z,23.83
2022-08-03T05:36:28.729Z,23.83
2022-08-03T05:38:57.528Z,24.11
2022-08-03T05:41:36.511Z,24.13
2022-08-03T05:44:04.428Z,24.16
2022-08-03T05:46:30.912Z,24.28
2022-08-03T05:48:57.571Z,24.37
2022-08-03T05:51:24.057Z,24.48
2022-08-03T05:53:50.537Z,24.58
2022-08-03T05:56:17.267Z,24.59
2022-08-03T05:58:45.336Z,24.79
2022-08-03T06:01:11.871Z,24.93
2022-08-03T06:03:38.504Z,25.19
2022-08-03T06:06:04.970Z,25.54
2022-08-03T06:08:31.417Z,25.83
2022-08-03T06:10:57.927Z,26.12
2022-08-03T06:13:24.357Z,26.45
2022-08-03T06:15:50.851Z,26.68
2022-08-03T06:18:17.302Z,26.87
2022-08-03T06:20:43.768Z,27.13
2022-08-03T06:23:16.022Z,27.33
2022-08-03T06:25:43.065Z,27.51
2022-08-03T06:28:18.970Z,27.59
2022-08-03T06:30:46.547Z,27.75
2022-08-03T06:33:16.613Z,27.98
2022-08-03T06:35:43.178Z,28.18
2022-08-03T06:38:12.982Z,28.37
2022-08-03T06:40:42.465Z,28.54
2022-08-03T06:43:12.595Z,28.65
2022-08-03T06:45:39.650Z,28.74
2022-08-03T06:48:11.403Z,29.02
2022-08-03T06:50:39.773Z,29.19
2022-08-03T06:53:06.245Z,29.32
2022-08-03T06:55:32.975Z,29.52
2022-08-03T06:57:59.979Z,29.57
2022-08-03T07:00:30.920Z,29.61
2022-08-03T07:02:58.502Z,29.81
2022-08-03T07:05:25.287Z,29.87
2022-08-03T07:07:55.624Z,30.13
2022-08-03T07:10:22.115Z,30.27
2022-08-03T07:12:52.659Z,30.60
2022-08-03T07:15:54.599Z,30.67
2022-08-03T07:18:09.882Z,30.75
2022-08-03T07:20:36.685Z,31.01
2022-08-03T07:23:03.122Z,31.05
2022-08-03T07:25:29.534Z,31.16
2022-08-03T07:27:56.008Z,31.13
2022-08-03T07:30:22.939Z,31.31
2022-08-03T07:32:50.238Z,31.51
2022-08-03T07:35:24.421Z,31.66
2022-08-03T07:37:54.205Z,31.71
2022-08-03T07:40:22.101Z,31.66
2022-08-03T07:42:53.391Z,31.37
2022-08-03T07:45:21.401Z,31.18
2022-08-03T07:47:53.665Z,31.37
2022-08-03T07:50:21.046Z,31.32
2022-08-03T07:52:51.679Z,31.21
2022-08-03T07:55:22.823Z,30.81
2022-08-03T07:58:07.707Z,31.00
2022-08-03T08:00:34.367Z,31.16
2022-08-03T08:03:00.891Z,31.24
2022-08-03T08:05:28.102Z,31.14
2022-08-03T08:07:54.617Z,31.32
2022-08-03T08:10:21.455Z,31.69
2022-08-03T08:12:48.294Z,31.74
2022-08-03T08:15:14.808Z,31.83
2022-08-03T08:18:02.389Z,32.00
2022-08-03T08:20:32.801Z,32.16
2022-08-03T08:23:10.236Z,32.00
2022-08-03T08:25:52.620Z,32.25
2022-08-03T08:28:30.279Z,32.35
2022-08-03T08:30:59.497Z,32.44
2022-08-03T08:33:37.236Z,32.33
2022-08-03T08:36:15.346Z,32.10
2022-08-03T08:38:44.401Z,32.12
2022-08-03T08:41:12.439Z,32.34
2022-08-03T08:43:39.024Z,32.54
2022-08-03T08:46:08.352Z,32.56
2022-08-03T08:48:36.329Z,32.68
2022-08-03T08:51:03.218Z,32.82
2022-08-03T08:53:30.203Z,32.95
2022-08-03T08:56:01.215Z,33.06
2022-08-03T08:58:38.969Z,32.82
2022-08-03T09:01:05.789Z,32.78
2022-08-03T09:03:34.259Z,32.65
2022-08-03T09:06:02.205Z,32.82
2022-08-03T09:08:29.608Z,32.82
2022-08-03T09:10:56.071Z,32.87
2022-08-03T09:13:22.655Z,32.97
2022-08-03T09:15:59.084Z,33.18
2022-08-03T09:18:32.532Z,33.31
2022-08-03T09:21:33.181Z,33.28
2022-08-03T09:24:05.163Z,33.43
2022-08-03T09:26:34.956Z,33.45
2022-08-03T09:29:11.161Z,33.69
2022-08-03T09:31:43.544Z,33.45
2022-08-03T09:34:12.303Z,33.27
2022-08-03T09:36:41.485Z,33.32
2022-08-03T09:39:13.499Z,33.58
2022-08-03T09:41:41.523Z,33.48
2022-08-03T09:44:08.435Z,33.55
2022-08-03T09:46:58.782Z,33.37
2022-08-03T09:49:25.503Z,33.36
2022-08-03T09:52:37.693Z,33.43
2022-08-03T09:54:39.740Z,33.32
2022-08-03T09:57:06.270Z,33.30
2022-08-03T09:59:33.528Z,33.60
2022-08-03T10:02:00.635Z,33.92
2022-08-03T10:04:27.523Z,34.09
2022-08-03T10:07:07.150Z,34.06
2022-08-03T10:09:33.656Z,34.02
2022-08-03T10:12:10.737Z,34.07
2022-08-03T10:14:39.269Z,34.38
2022-08-03T10:17:05.873Z,34.35
2022-08-03T10:19:33.306Z,34.53
2022-08-03T10:22:04.862Z,34.77
2022-08-03T10:24:35.374Z,34.54
2022-08-03T10:27:07.445Z,34.65
2022-08-03T10:29:43.463Z,34.52
2022-08-03T10:32:16.001Z,34.65
2022-08-03T10:34:44.633Z,34.62
2022-08-03T10:37:12.510Z,34.78
2022-08-03T10:39:53.182Z,34.87
2022-08-03T10:42:27.185Z,34.99
2022-08-03T10:45:22.283Z,34.96
2022-08-03T10:47:49.999Z,34.99
2022-08-03T10:50:17.460Z,35.34
2022-08-03T10:53:03.901Z,35.64
2022-08-03T10:55:56.698Z,35.63
2022-08-03T10:58:37.422Z,35.51
2022-08-03T11:01:59.930Z,35.56
2022-08-03T11:04:29.417Z,35.75
2022-08-03T11:07:24.683Z,35.72
2022-08-03T11:09:55.735Z,35.90
2022-08-03T11:12:28.995Z,35.78
2022-08-03T11:14:59.419Z,35.94
2022-08-03T11:17:25.882Z,35.93
2022-08-03T11:19:57.949Z,35.96
2022-08-03T11:22:25.578Z,35.80
2022-08-03T11:24:54.345Z,35.89
2022-08-03T11:27:22.742Z,36.03
2022-08-03T11:30:07.885Z,35.96
2022-08-03T11:32:37.258Z,36.15
2022-08-03T11:35:08.443Z,36.07
2022-08-03T11:37:35.067Z,36.04
2022-08-03T11:40:02.799Z,36.27
2022-08-03T11:42:29.401Z,36.44
2022-08-03T11:44:59.484Z,36.45
2022-08-03T11:47:28.495Z,36.42
2022-08-03T11:49:58.923Z,36.23
2022-08-03T11:52:27.160Z,36.37
2022-08-03T11:54:57.213Z,36.32
2022-08-03T11:59:17.703Z,36.36
2022-08-03T12:00:27.422Z,36.71
2022-08-03T12:02:58.111Z,36.77
2022-08-03T12:05:39.165Z,36.59
2022-08-03T12:08:07.096Z,36.60
2022-08-03T12:10:34.425Z,36.82
2022-08-03T12:13:01.956Z,37.03
2022-08-03T12:15:29.969Z,36.90
2022-08-03T12:17:58.131Z,37.22
2022-08-03T12:20:34.980Z,37.26
2022-08-03T12:23:04.560Z,37.21
2022-08-03T12:25:39.123Z,37.13
2022-08-03T12:28:36.912Z,37.15
2022-08-03T12:31:12.680Z,36.99
2022-08-03T12:33:59.867Z,37.09
2022-08-03T12:36:28.402Z,37.10
2022-08-03T12:39:00.202Z,36.86
2022-08-03T12:41:36.764Z,36.90
2022-08-03T12:44:04.356Z,37.02
2022-08-03T12:46:35.999Z,37.16
2022-08-03T12:49:16.983Z,36.84
2022-08-03T12:51:43.477Z,36.99
2022-08-03T12:54:16.544Z,37.21
2022-08-03T12:57:07.814Z,37.09
2022-08-03T12:59:45.191Z,37.31
2022-08-03T13:02:25.753Z,37.03
2022-08-03T13:04:54.462Z,37.05
2022-08-03T13:07:21.630Z,37.06
2022-08-03T13:09:48.266Z,37.03
2022-08-03T13:12:20.998Z,36.91
2022-08-03T13:14:50.226Z,36.82
2022-08-03T13:17:17.000Z,36.86
2022-08-03T13:19:43.777Z,36.89
2022-08-03T13:22:21.106Z,37.08
2022-08-03T13:24:49.292Z,37.39
2022-08-03T13:28:04.795Z,37.45
2022-08-03T13:30:03.927Z,37.69
2022-08-03T13:32:30.508Z,38.25
2022-08-03T13:34:57.029Z,38.36
2022-08-03T13:37:23.651Z,38.12
2022-08-03T13:39:58.662Z,38.18
2022-08-03T13:42:26.686Z,38.03
2022-08-03T13:44:53.215Z,37.89
2022-08-03T13:47:20.451Z,37.74
2022-08-03T13:49:54.861Z,37.67
2022-08-03T13:52:27.551Z,37.70
2022-08-03T13:54:54.298Z,37.71
2022-08-03T13:58:02.873Z,37.75
2022-08-03T14:00:08.039Z,38.01
2022-08-03T14:02:34.557Z,37.63
2022-08-03T14:05:01.020Z,37.26
2022-08-03T14:07:27.432Z,37.40
2022-08-03T14:09:53.861Z,37.67
2022-08-03T14:12:20.306Z,37.95
2022-08-03T14:14:46.762Z,38.21
2022-08-03T14:17:13.208Z,38.27
2022-08-03T14:19:53.130Z,38.33
2022-08-03T14:22:20.781Z,38.45
2022-08-03T14:24:47.333Z,38.32
2022-08-03T14:27:13.777Z,38.19
2022-08-03T14:29:40.205Z,38.19
2022-08-03T14:32:12.155Z,38.12
2022-08-03T14:34:39.345Z,38.25
2022-08-03T14:37:05.957Z,38.30
2022-08-03T14:42:20.298Z,38.63
2022-08-03T14:44:46.985Z,38.30
2022-08-03T14:47:13.614Z,37.36
2022-08-03T14:50:30.177Z,37.12
2022-08-03T14:52:26.678Z,37.40
2022-08-03T14:54:53.210Z,37.42
2022-08-03T14:57:19.895Z,37.52
2022-08-03T14:59:56.063Z,37.81
2022-08-03T15:02:24.214Z,38.11
2022-08-03T15:04:50.988Z,38.30
2022-08-03T15:07:17.510Z,38.58
2022-08-03T15:09:44.169Z,38.71
2022-08-03T15:12:10.668Z,38.63
2022-08-03T15:14:37.885Z,38.68
2022-08-03T15:17:05.010Z,38.74
2022-08-03T15:20:02.118Z,38.46
2022-08-03T15:22:20.691Z,38.26
2022-08-03T15:24:52.043Z,38.37
2022-08-03T15:27:18.818Z,38.72
2022-08-03T15:30:05.629Z,38.82
2022-08-03T15:32:33.597Z,38.69
2022-08-03T15:35:00.633Z,38.91
2022-08-03T15:37:27.622Z,38.90
2022-08-03T15:40:00.831Z,38.72
2022-08-03T15:42:32.929Z,38.19
2022-08-03T15:44:59.813Z,37.97
2022-08-03T15:47:26.495Z,37.99
2022-08-03T15:49:52.939Z,38.14
2022-08-03T15:52:19.447Z,37.99
2022-08-03T15:54:45.893Z,37.90
2022-08-03T15:57:12.416Z,37.96
2022-08-03T15:59:38.871Z,37.98
2022-08-03T16:02:05.430Z,38.32
2022-08-03T16:04:31.836Z,38.25
2022-08-03T16:06:58.266Z,37.92
2022-08-03T16:09:42.257Z,37.51
2022-08-03T16:12:14.478Z,37.41
2022-08-03T16:14:51.879Z,37.28
2022-08-03T16:17:20.568Z,36.91
2022-08-03T16:19:47.247Z,36.97
2022-08-03T16:22:14.325Z,36.83
2022-08-03T16:24:41.105Z,36.93
2022-08-03T16:27:15.561Z,36.97
2022-08-03T16:29:54.447Z,36.94
2022-08-03T16:32:20.951Z,37.06
2022-08-03T16:34:48.192Z,37.14
2022-08-03T16:37:37.641Z,37.02
2022-08-03T16:40:02.007Z,36.75
2022-08-03T16:42:28.480Z,36.53
2022-08-03T16:44:55.013Z,36.50
2022-08-03T16:47:21.885Z,36.36
2022-08-03T16:49:54.130Z,36.16
2022-08-03T16:52:22.867Z,36.30
2022-08-03T16:54:52.892Z,36.46
2022-08-03T16:57:56.748Z,36.60
2022-08-03T17:00:09.755Z,36.52
2022-08-03T17:02:36.406Z,36.65
2022-08-03T17:05:03.256Z,36.60
2022-08-03T17:07:30.504Z,36.65
2022-08-03T17:09:57.349Z,36.77
2022-08-03T17:12:27.001Z,36.73
2022-08-03T17:14:54.255Z,36.80
2022-08-03T17:17:28.544Z,36.66
2022-08-03T17:19:58.102Z,36.46
2022-08-03T17:22:33.218Z,36.21
2022-08-03T17:25:07.670Z,35.87
2022-08-03T17:28:48.359Z,35.70
2022-08-03T17:30:22.013Z,35.53
2022-08-03T17:32:56.783Z,35.32
2022-08-03T17:35:24.534Z,35.20
2022-08-03T17:38:03.617Z,35.13
2022-08-03T17:40:31.480Z,35.05
2022-08-03T17:42:59.443Z,34.89
2022-08-03T17:45:25.897Z,34.97
2022-08-03T17:48:12.368Z,34.98
2022-08-03T17:50:52.137Z,34.82
2022-08-03T17:53:24.657Z,34.88
2022-08-03T17:56:44.970Z,34.87
2022-08-03T17:59:50.738Z,34.82
2022-08-03T18:02:47.603Z,34.69
2022-08-03T18:05:16.708Z,34.67
2022-08-03T18:08:01.532Z,34.63
2022-08-03T18:10:34.364Z,34.67
2022-08-03T18:13:04.865Z,34.68
2022-08-03T18:15:47.277Z,34.57
2022-08-03T18:18:16.350Z,34.43
2022-08-03T18:20:56.497Z,34.37
2022-08-03T18:23:36.571Z,34.35
2022-08-03T18:26:06.873Z,34.15
2022-08-03T18:28:35.354Z,34.03
2022-08-03T18:31:05.675Z,33.95
2022-08-03T18:34:16.594Z,33.77
2022-08-03T18:36:30.355Z,33.47
2022-08-03T18:38:59.244Z,33.43
2022-08-03T18:41:33.477Z,33.43
2022-08-03T18:44:06.898Z,33.50
2022-08-03T18:46:59.349Z,33.37
2022-08-03T18:50:01.307Z,32.44
2022-08-03T18:52:53.161Z,31.75
2022-08-03T18:55:35.861Z,31.42
2022-08-03T18:58:15.922Z,31.21
2022-08-03T19:00:56.545Z,30.72
2022-08-03T19:03:24.887Z,30.37
2022-08-03T19:09:04.902Z,29.35
2022-08-03T19:12:12.592Z,29.43
2022-08-03T19:14:28.577Z,29.39
2022-08-03T19:17:05.463Z,29.13
2022-08-03T19:19:44.298Z,28.88
2022-08-03T19:22:12.906Z,28.72
2022-08-03T19:24:45.558Z,28.49
2022-08-03T19:27:12.845Z,28.27
2022-08-03T19:29:59.003Z,28.23
2022-08-03T19:32:31.444Z,28.03
2022-08-03T19:34:59.941Z,27.95
2022-08-03T19:37:38.110Z,27.97
2022-08-03T19:40:10.211Z,27.74
2022-08-03T19:42:40.492Z,27.53
2022-08-03T19:45:10.950Z,27.46
2022-08-03T19:47:46.887Z,27.30
2022-08-03T19:50:14.376Z,27.32
2022-08-03T19:52:43.754Z,27.24
2022-08-03T19:55:12.199Z,27.30
2022-08-03T19:57:41.011Z,27.27
2022-08-03T20:00:11.796Z,27.17
2022-08-03T20:02:39.893Z,27.04
2022-08-03T20:05:14.862Z,26.67
2022-08-03T20:07:55.372Z,26.50
2022-08-03T20:10:22.830Z,26.56
2022-08-03T20:12:49.762Z,26.57
2022-08-03T20:15:18.160Z,26.56
2022-08-03T20:17:54.649Z,26.44
2022-08-03T20:20:29.484Z,26.44
2022-08-03T20:22:58.017Z,26.56
2022-08-03T20:25:38.113Z,26.48
2022-08-03T20:28:14.185Z,26.57
2022-08-03T20:30:43.239Z,26.46
2022-08-03T20:33:10.257Z,26.30
2022-08-03T20:35:36.815Z,26.36
2022-08-03T20:38:03.461Z,26.31
2022-08-03T20:40:29.909Z,26.20
2022-08-03T20:42:56.378Z,26.24
2022-08-03T20:46:00.432Z,26.18
2022-08-03T20:48:10.051Z,26.15
2022-08-03T20:50:38.716Z,26.18
2022-08-03T20:53:06.542Z,26.12
2022-08-03T20:55:47.954Z,26.25
2022-08-03T20:58:20.267Z,26.19
2022-08-03T21:00:51.605Z,26.04
2022-08-03T21:03:18.843Z,26.07
2022-08-03T21:05:48.374Z,25.98
2022-08-03T21:08:21.385Z,25.97
2022-08-03T21:10:49.278Z,25.95
2022-08-03T21:13:01.364Z,30.28
2022-08-03T21:13:39.662Z,25.88
2022-08-03T21:16:14.615Z,25.90
2022-08-03T21:18:47.581Z,25.84
2022-08-03T21:21:16.027Z,26.00
2022-08-03T21:23:48.697Z,25.80
2022-08-03T21:26:18.381Z,25.51
2022-08-03T21:28:48.901Z,25.64
2022-08-03T21:31:24.847Z,25.64
2022-08-03T21:33:53.797Z,25.66
2022-08-03T21:36:20.302Z,25.37
2022-08-03T21:38:47.575Z,25.31
2022-08-03T21:41:23.441Z,25.55
2022-08-03T21:43:49.942Z,25.51
2022-08-03T21:46:18.992Z,25.54
2022-08-03T21:48:47.906Z,25.44
2022-08-03T21:51:17.411Z,25.51
2022-08-03T21:54:03.731Z,25.39
2022-08-03T21:56:40.873Z,25.60
2022-08-03T21:59:18.456Z,25.53
2022-08-03T22:01:45.737Z,25.54
2022-08-03T22:04:50.899Z,25.48
2022-08-03T22:07:04.273Z,25.42
2022-08-03T22:09:30.882Z,25.37
2022-08-03T22:11:57.435Z,25.33
2022-08-03T22:14:24.032Z,25.28
2022-08-03T22:16:50.507Z,25.30
2022-08-03T22:19:17.037Z,25.21
2022-08-03T22:21:47.361Z,25.17
2022-08-03T22:24:15.628Z,25.20
2022-08-03T22:27:02.857Z,25.13
2022-08-03T22:29:30.185Z,25.10
2022-08-03T22:31:58.081Z,25.01
2022-08-03T22:34:27.178Z,25.06
2022-08-03T22:36:56.548Z,25.08
2022-08-03T22:39:27.700Z,25.16
2022-08-03T22:41:55.240Z,25.03
2022-08-03T22:44:22.052Z,25.00
2022-08-03T22:46:48.680Z,25.07
2022-08-03T22:49:15.289Z,25.19
2022-08-03T22:51:41.925Z,25.19
2022-08-03T22:54:11.010Z,25.18
2022-08-03T22:56:39.003Z,25.08
2022-08-03T22:59:40.729Z,25.10
2022-08-03T23:01:56.631Z,25.08
2022-08-03T23:04:25.745Z,25.06
2022-08-03T23:06:56.294Z,25.05
2022-08-03T23:09:23.415Z,25.01
2022-08-03T23:11:50.126Z,25.03
2022-08-03T23:14:18.792Z,24.87
2022-08-03T23:16:46.458Z,24.75
2022-08-03T23:19:17.041Z,24.63
2022-08-03T23:22:02.976Z,24.63
2022-08-03T23:24:30.634Z,24.59
2022-08-03T23:26:58.152Z,24.48
2022-08-03T23:29:24.681Z,24.50
2022-08-03T23:31:53.717Z,24.41
2022-08-03T23:34:39.937Z,24.35
2022-08-03T23:37:06.590Z,24.40
2022-08-03T23:39:35.335Z,24.31
2022-08-03T23:42:02.890Z,24.32
2022-08-03T23:44:30.952Z,24.26
2022-08-03T23:46:57.421Z,24.21
2022-08-03T23:49:23.878Z,24.15
2022-08-03T23:52:07.926Z,24.01
2022-08-03T23:54:40.556Z,23.89
2022-08-03T23:57:19.386Z,23.85
2022-08-03T23:59:51.990Z,23.83
